Time;durP1;ratioP1;P1;durP2;ratioP2;P2;SDS_P1;SDS_P2;PMS_P1;PMS_P2;Temp;Humidity;BMP_temperature;BMP_pressure;BME280_temperature;BME280_humidity;BME280_pressure;Samples;Min_cycle;Max_cycle;Signal;HPM_P1;HPM_P2
2023/01/13 00:01:19;;;;;;;18.10;9.20;;;;;;;6.71;81.79;99718.61;131151;1248;107751;-73
2023/01/13 00:04:25;;;;;;;14.10;7.80;;;;;;;6.76;82.08;99715.90;131134;1254;107654;-73
2023/01/13 00:07:30;;;;;;;15.80;7.90;;;;;;;6.79;81.72;99715.23;131440;1254;106822;-73
2023/01/13 00:10:36;;;;;;;17.10;7.80;;;;;;;6.82;81.73;99716.92;131189;1253;107236;-73
2023/01/13 00:13:42;;;;;;;13.30;7.70;;;;;;;6.83;81.91;99711.34;131123;1254;107647;-73
2023/01/13 00:16:47;;;;;;;14.80;7.20;;;;;;;6.83;81.69;99705.53;131344;1254;107523;-72
2023/01/13 00:19:53;;;;;;;12.70;7.00;;;;;;;6.79;81.94;99701.60;131293;1252;107569;-73
2023/01/13 00:23:00;;;;;;;12.50;6.80;;;;;;;6.78;82.34;99702.77;131410;1252;107367;-73
2023/01/13 00:26:07;;;;;;;13.90;7.50;;;;;;;6.80;82.20;99698.55;131406;1253;107379;-73
2023/01/13 00:29:13;;;;;;;17.60;7.50;;;;;;;6.83;82.14;99694.56;131378;1254;107402;-73
2023/01/13 00:32:20;;;;;;;14.80;7.50;;;;;;;6.84;82.14;99696.60;131172;1248;107519;-73
2023/01/13 00:35:25;;;;;;;14.80;7.60;;;;;;;6.83;82.17;99698.30;131137;1255;107588;-73
2023/01/13 00:38:34;;;;;;;13.70;7.20;;;;;;;6.82;82.10;99696.77;131312;1253;107575;-73
2023/01/13 00:45:02;;;;;;;11.60;6.20;;;;;;;6.79;82.22;99700.43;131058;1253;108634;-73
2023/01/13 00:48:08;;;;;;;12.40;6.50;;;;;;;6.75;82.27;99695.80;131246;1257;106405;-73
2023/01/13 00:51:15;;;;;;;14.00;7.00;;;;;;;6.74;82.26;99693.27;131385;1253;107452;-73
2023/01/13 00:54:21;;;;;;;12.90;6.20;;;;;;;6.75;82.25;99689.84;131370;1254;107597;-73
2023/01/13 00:57:26;;;;;;;11.80;6.90;;;;;;;6.79;82.37;99686.48;131092;1254;107517;-73
2023/01/13 01:00:32;;;;;;;12.40;7.00;;;;;;;6.82;82.21;99684.20;131146;1254;107625;-73
2023/01/13 01:03:38;;;;;;;16.70;7.70;;;;;;;6.82;82.43;99681.06;131218;1253;108810;-74
2023/01/13 01:06:44;;;;;;;12.00;6.70;;;;;;;6.81;82.31;99678.13;131317;1253;108571;-74
2023/01/13 01:09:50;;;;;;;13.20;6.50;;;;;;;6.79;82.58;99679.02;131183;1254;107466;-73
2023/01/13 01:12:56;;;;;;;10.60;5.70;;;;;;;6.77;82.50;99671.40;131288;1254;107384;-75
2023/01/13 01:16:06;;;;;;;12.20;5.60;;;;;;;6.75;82.42;99668.27;131150;1253;107457;-73
2023/01/13 01:19:12;;;;;;;12.20;6.00;;;;;;;6.74;82.71;99666.45;131215;1252;106571;-73
2023/01/13 01:22:17;;;;;;;10.30;5.90;;;;;;;6.75;82.59;99666.90;131204;1258;107577;-73
2023/01/13 01:25:23;;;;;;;10.80;6.00;;;;;;;6.76;82.54;99656.48;131245;1257;108137;-73
2023/01/13 01:28:28;;;;;;;9.70;6.10;;;;;;;6.78;82.56;99652.28;131388;1253;106373;-73
2023/01/13 01:31:34;;;;;;;9.70;6.20;;;;;;;6.79;82.59;99654.09;131344;1248;107825;-73
2023/01/13 01:34:40;;;;;;;9.70;5.30;;;;;;;6.80;82.61;99650.10;131370;1254;107428;-73
2023/01/13 01:37:45;;;;;;;10.50;5.00;;;;;;;6.79;82.49;99648.06;131217;1248;107458;-73
2023/01/13 01:40:51;;;;;;;8.90;4.70;;;;;;;6.78;82.81;99649.41;131189;1253;107090;-72
2023/01/13 01:44:05;;;;;;;10.30;5.10;;;;;;;6.78;82.85;99641.65;131353;1253;107564;-73
2023/01/13 01:47:14;;;;;;;11.20;5.20;;;;;;;6.82;82.75;99639.09;131227;1253;108636;-73
2023/01/13 01:50:21;;;;;;;9.60;5.40;;;;;;;6.86;82.76;99634.48;131333;1254;107243;-73
2023/01/13 01:53:29;;;;;;;10.30;5.40;;;;;;;6.88;82.65;99634.30;131216;1255;107476;-73
2023/01/13 01:56:37;;;;;;;9.50;5.60;;;;;;;6.89;83.01;99628.95;131286;1253;107620;-72
2023/01/13 01:59:43;;;;;;;10.40;5.60;;;;;;;6.88;82.90;99631.85;131206;1253;107512;-72
2023/01/13 02:02:51;;;;;;;9.00;4.50;;;;;;;6.84;82.68;99621.26;131211;1252;107470;-72
2023/01/13 02:05:57;;;;;;;8.50;4.70;;;;;;;6.82;82.96;99624.05;131392;1248;105541;-72
2023/01/13 02:09:02;;;;;;;9.00;5.00;;;;;;;6.83;82.84;99610.95;131134;1252;107548;-73
2023/01/13 02:15:38;;;;;;;11.30;5.20;;;;;;;6.88;83.07;99606.20;131256;1254;106996;-74
2023/01/13 02:18:51;;;;;;;;;;;;;;;6.90;83.00;99614.15;131229;1248;107534;-73
2023/01/13 02:22:30;;;;;;;10.00;5.20;;;;;;;6.92;83.21;99614.33;131350;1248;107360;-73
2023/01/13 02:25:51;;;;;;;9.40;5.40;;;;;;;6.89;83.18;99605.23;131349;1253;106556;-72
2023/01/13 02:32:44;;;;;;;7.10;4.50;;;;;;;6.85;83.28;99602.77;131248;1247;106995;-73
2023/01/13 02:35:56;;;;;;;8.40;4.60;;;;;;;6.86;83.52;99600.86;131283;1261;107541;-73
2023/01/13 02:39:09;;;;;;;8.30;5.10;;;;;;;6.90;83.70;99597.14;131221;1247;107496;-73
2023/01/13 02:45:50;;;;;;;9.40;4.90;;;;;;;6.94;83.75;99596.85;130751;1253;242788;-72
2023/01/13 02:49:01;;;;;;;8.70;4.90;;;;;;;6.93;83.54;99595.16;131297;1253;107642;-73
2023/01/13 02:52:11;;;;;;;8.30;4.50;;;;;;;6.90;83.68;99593.66;131279;1253;107516;-73
2023/01/13 02:55:22;;;;;;;6.90;4.50;;;;;;;6.91;83.54;99592.57;131353;1252;107440;-72
2023/01/13 02:58:29;;;;;;;8.60;5.00;;;;;;;6.93;83.86;99592.63;131268;1253;107554;-73
2023/01/13 03:01:35;;;;;;;10.20;5.10;;;;;;;6.95;83.78;99589.61;131443;1259;108800;-73
2023/01/13 03:04:56;;;;;;;10.00;5.50;;;;;;;6.97;83.71;99589.56;131365;1248;107318;-73
2023/01/13 03:08:16;;;;;;;11.10;5.10;;;;;;;6.99;84.14;99587.27;131380;1253;107591;-73
2023/01/13 03:11:25;;;;;;;9.60;5.50;;;;;;;6.99;84.16;99583.77;131430;1253;106741;-73
2023/01/13 03:14:41;;;;;;;8.30;4.60;;;;;;;6.97;84.29;99582.93;131301;1252;107248;-73
2023/01/13 03:17:55;;;;;;;7.80;4.50;;;;;;;6.95;84.29;99582.16;131333;1248;107528;-73
2023/01/13 03:21:08;;;;;;;9.50;5.20;;;;;;;6.95;84.85;99579.06;131429;1253;107398;-73
2023/01/13 03:24:20;;;;;;;9.60;4.90;;;;;;;6.94;84.96;99577.52;131381;1253;106537;-73
2023/01/13 03:27:31;;;;;;;9.70;5.10;;;;;;;6.93;85.24;99577.45;131401;1248;107272;-73
2023/01/13 03:30:43;;;;;;;8.70;5.10;;;;;;;6.94;85.09;99578.98;131294;1250;107386;-73
2023/01/13 03:33:55;;;;;;;8.90;5.50;;;;;;;6.92;85.28;99582.65;131330;1250;107513;-75
2023/01/13 03:37:02;;;;;;;;;;;;;;;6.87;85.22;99581.16;131231;1253;107560;-75
2023/01/13 03:40:14;;;;;;;9.60;4.60;;;;;;;6.84;85.48;99577.20;131373;1252;108463;-73
2023/01/13 03:46:58;;;;;;;8.30;4.90;;;;;;;6.82;85.66;99571.55;131382;1253;107539;-72
2023/01/13 03:50:09;;;;;;;8.30;5.50;;;;;;;6.83;85.95;99569.16;131385;1258;106362;-74
2023/01/13 03:53:19;;;;;;;8.50;5.20;;;;;;;6.81;85.83;99569.93;131392;1252;107486;-73
2023/01/13 03:56:29;;;;;;;9.30;4.80;;;;;;;6.78;85.87;99570.02;131329;1247;108573;-73
2023/01/13 03:59:41;;;;;;;6.70;4.30;;;;;;;6.77;85.75;99565.54;131375;1252;107242;-77
2023/01/13 04:02:54;;;;;;;8.70;4.50;;;;;;;6.77;85.79;99563.35;131400;1252;107550;-77
2023/01/13 04:06:08;;;;;;;7.20;4.60;;;;;;;6.78;86.27;99558.73;131483;1254;107707;-77
2023/01/13 04:09:22;;;;;;;6.80;4.50;;;;;;;6.82;85.96;99560.11;131501;1248;107536;-77
2023/01/13 04:12:59;;;;;;;9.10;5.00;;;;;;;6.84;86.05;99562.59;131358;1248;108368;-77
2023/01/13 04:15:59;;;;;;;19.30;7.50;;;;;;;6.82;85.93;99560.80;131495;1252;107264;-77
2023/01/13 04:19:05;;;;;;;9.20;4.40;;;;;;;6.79;86.22;99561.98;131462;1252;107242;-77
2023/01/13 04:22:11;;;;;;;9.50;4.60;;;;;;;6.77;86.33;99558.14;131493;1248;107365;-77
2023/01/13 04:25:16;;;;;;;45.80;21.90;;;;;;;6.77;86.65;99556.91;131186;1252;107625;-77
2023/01/13 04:28:23;;;;;;;11.40;6.50;;;;;;;6.78;86.51;99555.04;131283;1252;108665;-77
2023/01/13 04:31:28;;;;;;;7.80;5.40;;;;;;;6.82;86.79;99551.11;131211;1248;107260;-77
2023/01/13 04:34:34;;;;;;;10.70;7.00;;;;;;;6.83;86.88;99549.41;131283;1252;107405;-77
2023/01/13 04:37:39;;;;;;;27.70;13.90;;;;;;;6.80;86.96;99542.08;131367;1252;107422;-77
2023/01/13 04:40:46;;;;;;;12.80;6.50;;;;;;;6.78;86.86;99542.83;131379;1252;107210;-78
2023/01/13 04:43:51;;;;;;;11.10;6.50;;;;;;;6.80;86.90;99542.61;131390;1252;107480;-77
2023/01/13 04:46:57;;;;;;;11.10;7.40;;;;;;;6.85;86.96;99547.05;131385;1248;105528;-77
2023/01/13 04:50:03;;;;;;;19.40;11.20;;;;;;;6.90;86.77;99545.95;131370;1252;107517;-77
2023/01/13 04:53:08;;;;;;;10.60;6.80;;;;;;;6.90;86.87;99550.50;131400;1252;107596;-77
2023/01/13 04:56:14;;;;;;;11.40;6.90;;;;;;;6.90;86.87;99552.65;131383;1254;108718;-77
2023/01/13 04:59:19;;;;;;;7.30;5.40;;;;;;;6.90;86.83;99552.79;131346;1252;107496;-77
2023/01/13 05:02:25;;;;;;;7.40;5.00;;;;;;;6.89;86.81;99551.69;131351;1252;106525;-77
2023/01/13 05:05:31;;;;;;;8.70;5.40;;;;;;;6.91;86.94;99552.42;131397;1248;108699;-77
2023/01/13 05:08:37;;;;;;;8.70;5.70;;;;;;;6.93;87.11;99550.92;131387;1252;107342;-77
2023/01/13 05:18:33;;;;;;;9.70;6.10;;;;;;;7.00;86.92;99544.11;131208;1253;106651;-77
2023/01/13 05:28:24;;;;;;;9.30;5.60;;;;;;;6.98;87.43;99540.02;131180;1252;107603;-77
2023/01/13 05:31:30;;;;;;;78.70;34.80;;;;;;;7.00;87.41;99548.13;131053;1252;105781;-77
2023/01/13 05:34:36;;;;;;;16.50;8.90;;;;;;;7.03;86.96;99553.31;131081;1252;107477;-73
2023/01/13 05:37:41;;;;;;;22.20;10.80;;;;;;;7.07;87.22;99556.30;131150;1252;107470;-75
2023/01/13 05:44:10;;;;;;;23.00;9.60;;;;;;;7.06;87.02;99560.48;131153;1252;107570;-74
2023/01/13 05:47:15;;;;;;;18.10;7.00;;;;;;;7.03;87.02;99559.11;131111;1248;105487;-74
2023/01/13 05:50:21;;;;;;;82.60;26.40;;;;;;;7.04;87.01;99558.89;131140;1250;107573;-74
2023/01/13 05:53:26;;;;;;;147.40;51.40;;;;;;;7.08;87.09;99560.48;131329;1252;107497;-73
2023/01/13 05:56:33;;;;;;;20.90;7.90;;;;;;;7.12;87.01;99562.05;131282;1252;107508;-74
2023/01/13 05:59:38;;;;;;;21.60;8.90;;;;;;;7.14;86.84;99562.73;131159;1248;107263;-74
2023/01/13 06:02:44;;;;;;;45.20;17.10;;;;;;;7.15;87.01;99563.00;131397;1252;107520;-74
2023/01/13 06:05:52;;;;;;;61.20;21.60;;;;;;;7.12;86.74;99562.73;131349;1262;107293;-73
2023/01/13 06:08:57;;;;;;;28.80;11.80;;;;;;;7.11;86.69;99562.48;131402;1254;107286;-73
2023/01/13 06:12:03;;;;;;;25.50;10.80;;;;;;;7.11;86.90;99568.65;131217;1252;107543;-73
2023/01/13 06:15:11;;;;;;;52.60;27.60;;;;;;;7.13;86.99;99570.05;131316;1251;107267;-73
2023/01/13 06:18:16;;;;;;;28.60;16.10;;;;;;;7.18;86.83;99570.83;131194;1252;107644;-74
2023/01/13 06:21:24;;;;;;;17.90;9.80;;;;;;;7.21;87.07;99572.11;131183;1252;107441;-75
2023/01/13 06:24:41;;;;;;;13.70;6.90;;;;;;;7.23;86.85;99572.67;130967;1265;108338;-74
2023/01/13 06:27:49;;;;;;;7.70;4.80;;;;;;;7.21;86.65;99572.85;130959;1252;107759;-75
2023/01/13 06:30:59;;;;;;;7.10;4.20;;;;;;;7.20;86.83;99574.20;131046;1252;107280;-73
2023/01/13 06:34:11;;;;;;;10.20;4.90;;;;;;;7.22;86.87;99569.58;131151;1253;107681;-73
2023/01/13 06:37:20;;;;;;;7.50;3.80;;;;;;;7.27;86.90;99570.33;131307;1250;107385;-73
2023/01/13 06:40:26;;;;;;;6.30;3.90;;;;;;;7.31;87.01;99561.05;131122;1252;108653;-74
2023/01/13 06:43:31;;;;;;;7.30;4.30;;;;;;;7.31;86.94;99560.02;131099;1252;107489;-74
2023/01/13 06:46:37;;;;;;;6.60;3.80;;;;;;;7.29;86.77;99556.31;131208;1251;107474;-74
2023/01/13 06:49:43;;;;;;;5.80;3.80;;;;;;;7.25;87.15;99556.81;131242;1248;106656;-74
2023/01/13 06:52:48;;;;;;;11.70;6.10;;;;;;;7.22;87.17;99556.74;131290;1253;108185;-73
2023/01/13 06:55:54;;;;;;;6.90;3.80;;;;;;;7.22;86.93;99565.27;131428;1247;107383;-73
2023/01/13 06:58:59;;;;;;;13.50;6.70;;;;;;;7.25;86.99;99563.40;131133;1253;107537;-75
2023/01/13 07:02:05;;;;;;;8.50;4.50;;;;;;;7.28;87.14;99559.59;131174;1252;107479;-73
2023/01/13 07:05:11;;;;;;;10.10;6.00;;;;;;;7.27;87.04;99561.11;131317;1252;107503;-73
2023/01/13 07:08:16;;;;;;;7.30;4.50;;;;;;;7.27;87.32;99565.02;131428;1252;107599;-73
2023/01/13 07:11:23;;;;;;;5.50;3.40;;;;;;;7.26;87.18;99562.79;131102;1252;107276;-74
2023/01/13 07:17:53;;;;;;;5.90;3.80;;;;;;;7.26;87.53;99576.06;131371;1252;107503;-73
2023/01/13 07:21:00;;;;;;;5.80;3.60;;;;;;;7.30;87.31;99573.41;131052;1252;107509;-71
2023/01/13 07:24:06;;;;;;;24.00;10.90;;;;;;;7.34;87.40;99569.61;131188;1252;108557;-72
2023/01/13 07:27:12;;;;;;;9.10;5.00;;;;;;;7.37;87.53;99569.18;131033;1253;108564;-72
2023/01/13 07:30:18;;;;;;;44.10;16.90;;;;;;;7.38;87.57;99571.21;131396;1253;107242;-72
2023/01/13 07:33:24;;;;;;;14.10;6.00;;;;;;;7.35;87.52;99563.13;131375;1252;106554;-72
2023/01/13 07:36:30;;;;;;;12.20;4.90;;;;;;;7.34;87.61;99564.30;131369;1248;105760;-72
2023/01/13 07:39:35;;;;;;;35.10;12.00;;;;;;;7.37;87.57;99565.80;131408;1254;107472;-72
2023/01/13 07:46:06;;;;;;;51.90;19.70;;;;;;;7.44;87.54;99564.71;131375;1252;107632;-73
2023/01/13 07:49:13;;;;;;;38.10;15.40;;;;;;;7.46;87.32;99561.23;131337;1252;107524;-72
2023/01/13 07:52:18;;;;;;;28.20;12.00;;;;;;;7.46;87.40;99564.20;131516;1252;107391;-72
2023/01/13 07:55:24;;;;;;;51.00;20.60;;;;;;;7.46;87.38;99563.16;131361;1248;107367;-72
2023/01/13 07:58:30;;;;;;;38.50;16.70;;;;;;;7.45;87.38;99560.72;131451;1252;107244;-72
2023/01/13 08:01:36;;;;;;;36.10;17.10;;;;;;;7.46;87.46;99563.10;131388;1250;107379;-74
2023/01/13 08:04:41;;;;;;;44.30;20.20;;;;;;;7.49;87.15;99562.50;131163;1248;107411;-72
2023/01/13 08:07:47;;;;;;;17.40;8.70;;;;;;;7.54;87.14;99562.59;131405;1252;107523;-72
2023/01/13 08:10:52;;;;;;;17.60;9.30;;;;;;;7.57;87.11;99560.44;131394;1252;107484;-72
2023/01/13 08:13:58;;;;;;;20.90;9.40;;;;;;;7.59;87.08;99566.81;131380;1253;107562;-72
2023/01/13 08:17:04;;;;;;;24.10;10.00;;;;;;;7.59;86.61;99568.84;131305;1250;107488;-72
2023/01/13 08:20:12;;;;;;;10.90;5.80;;;;;;;7.57;86.96;99570.02;131324;1260;108698;-72
2023/01/13 08:23:18;;;;;;;16.50;7.10;;;;;;;7.60;87.12;99571.84;131447;1247;107405;-71
2023/01/13 08:26:23;;;;;;;14.10;7.60;;;;;;;7.64;86.85;99570.59;131359;1251;107620;-72
2023/01/13 08:29:29;;;;;;;385.80;151.20;;;;;;;7.69;86.87;99576.51;131014;1252;107518;-71
2023/01/13 08:32:34;;;;;;;53.80;21.20;;;;;;;7.70;86.63;99577.05;131085;1248;108695;-72
2023/01/13 08:35:41;;;;;;;42.60;20.40;;;;;;;7.74;86.76;99576.55;131113;1253;107454;-73
2023/01/13 08:38:47;;;;;;;69.30;34.00;;;;;;;7.75;86.59;99580.34;131383;1252;107570;-72
2023/01/13 08:41:55;;;;;;;71.40;34.90;;;;;;;7.74;86.54;99580.94;131184;1252;107450;-71
2023/01/13 08:45:00;;;;;;;14.90;8.80;;;;;;;7.74;86.60;99579.91;131044;1252;107486;-72
2023/01/13 08:48:06;;;;;;;15.80;7.40;;;;;;;7.76;86.83;99584.27;131067;1261;108017;-71
2023/01/13 08:51:13;;;;;;;13.70;8.10;;;;;;;7.82;86.89;99583.73;131332;1262;108704;-72
2023/01/13 08:54:19;;;;;;;17.50;10.10;;;;;;;7.87;86.69;99586.20;131206;1248;108363;-72
2023/01/13 08:57:25;;;;;;;47.10;18.40;;;;;;;7.92;86.57;99583.79;131151;1252;107393;-71
2023/01/13 09:00:30;;;;;;;25.30;11.00;;;;;;;7.99;86.49;99582.73;131400;1252;106758;-72
2023/01/13 09:03:37;;;;;;;83.50;30.20;;;;;;;8.03;86.42;99576.63;131219;1247;107315;-72
2023/01/13 09:06:43;;;;;;;14.30;6.50;;;;;;;8.10;86.26;99580.98;131143;1248;105767;-72
2023/01/13 09:09:50;;;;;;;15.70;6.60;;;;;;;8.12;86.31;99580.18;131054;1251;105912;-72
2023/01/13 09:13:14;;;;;;;50.90;18.20;;;;;;;8.20;86.29;99582.90;131246;1248;107272;-72
2023/01/13 09:16:19;;;;;;;16.60;7.00;;;;;;;8.32;86.23;99581.92;131360;1250;107400;-72
2023/01/13 09:19:25;;;;;;;42.80;16.20;;;;;;;8.41;85.70;99576.36;131367;1252;107473;-72
2023/01/13 09:22:34;;;;;;;31.90;13.00;;;;;;;8.48;85.63;99578.02;131198;1247;108634;-72
2023/01/13 09:25:40;;;;;;;109.40;40.40;;;;;;;8.51;85.49;99575.02;131073;1252;106497;-72
2023/01/13 09:28:45;;;;;;;49.40;18.70;;;;;;;8.55;85.43;99569.54;131158;1254;107250;-71
2023/01/13 09:31:51;;;;;;;101.60;34.90;;;;;;;8.58;85.26;99571.17;131092;1252;107488;-72
2023/01/13 09:35:02;;;;;;;19.10;7.70;;;;;;;8.57;84.95;99564.84;131072;1250;107546;-73
2023/01/13 09:38:08;;;;;;;74.60;26.90;;;;;;;8.59;85.11;99565.71;131383;1252;107210;-72
2023/01/13 09:44:50;;;;;;;26.70;10.80;;;;;;;8.78;84.77;99559.50;131116;1252;106958;-73
2023/01/13 09:48:02;;;;;;;12.00;6.20;;;;;;;8.88;84.38;99559.98;131366;1253;107528;-72
2023/01/13 09:51:19;;;;;;;214.60;82.10;;;;;;;8.93;84.33;99555.61;131194;1250;107364;-72
2023/01/13 09:54:31;;;;;;;34.30;14.80;;;;;;;8.99;84.03;99556.93;131227;1252;107520;-72
2023/01/13 09:57:39;;;;;;;47.60;19.50;;;;;;;9.04;84.21;99555.59;131363;1252;106139;-72
2023/01/13 10:00:50;;;;;;;26.40;12.00;;;;;;;9.10;83.97;99558.40;131088;1252;106698;-72
2023/01/13 10:03:56;;;;;;;44.70;22.80;;;;;;;9.11;83.73;99556.31;131303;1261;107442;-74
2023/01/13 10:07:04;;;;;;;28.30;13.30;;;;;;;9.11;83.87;99555.25;131333;1253;107569;-76
2023/01/13 10:10:17;;;;;;;17.20;8.90;;;;;;;9.14;83.90;99555.29;131177;1253;108534;-74
2023/01/13 10:13:26;;;;;;;20.40;11.50;;;;;;;9.18;83.71;99549.13;131137;1248;109251;-74
2023/01/13 10:16:41;;;;;;;70.00;39.00;;;;;;;9.25;83.66;99550.88;131156;1253;107378;-74
2023/01/13 10:19:52;;;;;;;17.10;9.50;;;;;;;9.30;83.44;99550.80;131283;1250;106708;-74
2023/01/13 10:23:11;;;;;;;39.70;24.80;;;;;;;9.30;82.59;99543.80;131129;1252;107397;-74
2023/01/13 10:26:33;;;;;;;20.40;11.10;;;;;;;9.25;82.70;99542.36;131328;1252;107378;-74
2023/01/13 10:29:39;;;;;;;90.10;49.10;;;;;;;9.21;82.91;99538.85;131111;1253;107428;-74
2023/01/13 10:32:50;;;;;;;40.20;22.40;;;;;;;9.22;82.97;99543.42;131372;1250;106418;-74
2023/01/13 10:35:59;;;;;;;20.10;12.00;;;;;;;9.21;82.72;99538.33;131373;1252;107397;-74
2023/01/13 10:39:14;;;;;;;24.10;14.10;;;;;;;9.21;82.73;99538.31;131366;1252;106423;-73
2023/01/13 10:42:22;;;;;;;12.70;8.40;;;;;;;9.20;82.52;99537.76;131286;1252;107501;-74
2023/01/13 10:45:28;;;;;;;8.20;5.20;;;;;;;9.23;82.71;99536.69;131243;1254;107369;-74
2023/01/13 10:48:40;;;;;;;9.30;5.60;;;;;;;9.29;82.47;99532.91;131344;1252;107230;-73
2023/01/13 10:51:46;;;;;;;13.40;10.00;;;;;;;9.35;82.41;99531.16;131381;1251;107517;-74
2023/01/13 10:54:54;;;;;;;11.30;6.30;;;;;;;9.41;82.44;99528.38;131120;1255;109118;-74
2023/01/13 10:58:13;;;;;;;8.50;4.90;;;;;;;9.41;81.88;99524.83;131238;1252;106512;-74
2023/01/13 11:01:26;;;;;;;10.10;5.40;;;;;;;9.37;82.03;99526.15;131079;1250;107237;-73
2023/01/13 11:04:36;;;;;;;372.50;97.20;;;;;;;9.35;81.96;99525.68;131369;1252;106387;-74
2023/01/13 11:07:49;;;;;;;83.90;36.30;;;;;;;9.33;81.88;99520.21;131138;1252;107464;-74
2023/01/13 11:10:57;;;;;;;27.20;13.80;;;;;;;9.30;81.72;99519.34;131347;1255;107426;-76
2023/01/13 11:17:40;;;;;;;9.60;5.10;;;;;;;9.22;81.90;99514.96;130998;1249;107225;-74
2023/01/13 11:20:50;;;;;;;9.80;5.60;;;;;;;9.27;81.95;99512.87;131335;1252;107495;-74
2023/01/13 11:24:05;;;;;;;10.90;6.20;;;;;;;9.36;82.18;99514.10;131352;1250;107410;-74
2023/01/13 11:27:17;;;;;;;11.10;6.70;;;;;;;9.49;81.81;99510.27;131208;1252;107612;-73
2023/01/13 11:30:34;;;;;;;16.20;10.90;;;;;;;9.59;81.47;99505.23;131073;1250;107218;-74
2023/01/13 11:33:46;;;;;;;10.80;6.90;;;;;;;9.59;81.35;99501.48;131330;1250;107624;-74
2023/01/13 11:36:55;;;;;;;13.20;8.00;;;;;;;9.56;81.47;99496.85;131391;1252;107385;-74
2023/01/13 11:40:04;;;;;;;17.10;12.30;;;;;;;9.55;81.36;99496.13;131275;1250;107946;-73
2023/01/13 11:43:19;;;;;;;11.60;7.50;;;;;;;9.55;81.63;99502.14;131107;1252;107275;-74
2023/01/13 11:46:27;;;;;;;12.80;8.30;;;;;;;9.55;81.60;99497.12;131384;1253;106311;-74
2023/01/13 11:49:36;;;;;;;12.10;6.50;;;;;;;9.52;81.56;99497.48;131076;1252;107541;-74
2023/01/13 11:52:57;;;;;;;16.60;9.70;;;;;;;9.53;81.59;99497.48;131075;1253;107550;-74
2023/01/13 11:56:13;;;;;;;15.50;8.00;;;;;;;9.62;81.37;99491.23;131222;1252;107353;-74
2023/01/13 11:59:42;;;;;;;37.60;15.90;;;;;;;9.72;81.11;99488.77;131232;1251;107538;-73
2023/01/13 12:02:58;;;;;;;18.60;8.00;;;;;;;9.78;81.16;99488.06;131152;1252;107495;-74
2023/01/13 12:06:25;;;;;;;40.80;15.00;;;;;;;9.79;81.08;99485.43;131110;1257;107301;-74
2023/01/13 12:09:37;;;;;;;139.10;42.00;;;;;;;9.80;81.31;99486.10;131246;1252;107442;-75
2023/01/13 12:12:48;;;;;;;;;;;;;;;9.81;81.18;99486.67;131427;1252;107522;-74
2023/01/13 12:16:14;;;;;;;121.60;39.00;;;;;;;9.79;81.13;99489.04;131278;1261;107549;-74
2023/01/13 12:19:27;;;;;;;121.40;38.90;;;;;;;9.76;81.18;99488.30;131156;1252;106814;-74
2023/01/13 12:22:36;;;;;;;52.60;19.90;;;;;;;9.71;80.77;99487.08;131314;1250;107329;-75
2023/01/13 12:25:47;;;;;;;53.40;22.30;;;;;;;9.66;81.23;99484.94;131327;1256;107369;-74
2023/01/13 12:28:57;;;;;;;63.10;25.90;;;;;;;9.62;81.26;99479.27;131296;1250;108588;-74
2023/01/13 12:32:05;;;;;;;17.10;8.00;;;;;;;9.60;81.16;99474.71;131323;1253;107346;-74
2023/01/13 12:35:23;;;;;;;26.30;11.20;;;;;;;9.61;81.08;99477.31;131380;1262;107552;-72
2023/01/13 12:38:36;;;;;;;64.70;31.90;;;;;;;9.61;81.31;99482.23;131149;1252;106580;-72
2023/01/13 12:45:28;;;;;;;27.80;13.30;;;;;;;9.65;81.41;99483.67;131086;1252;107475;-73
2023/01/13 12:49:17;;;;;;;29.00;12.40;;;;;;;9.61;81.50;99488.09;131096;1252;107684;-75
2023/01/13 12:52:22;;;;;;;116.00;56.50;;;;;;;9.57;81.65;99488.96;131160;1252;107240;-72
2023/01/13 12:55:31;;;;;;;30.70;16.30;;;;;;;9.54;81.82;99486.09;131181;1250;107403;-73
2023/01/13 12:58:36;;;;;;;16.80;9.50;;;;;;;9.50;81.86;99493.32;131285;1253;106502;-73
2023/01/13 13:01:42;;;;;;;11.10;7.20;;;;;;;9.45;81.94;99487.89;131012;1252;107545;-72
2023/01/13 13:04:50;;;;;;;14.40;9.20;;;;;;;9.47;81.89;99488.65;131070;1254;107509;-73
2023/01/13 13:08:07;;;;;;;20.90;14.20;;;;;;;9.49;82.14;99493.34;131155;1250;107369;-72
2023/01/13 13:15:19;;;;;;;9.90;5.80;;;;;;;9.44;82.08;99493.30;131055;1252;107468;-73
2023/01/13 13:18:29;;;;;;;5.80;3.90;;;;;;;9.41;82.23;99498.62;131141;1252;107430;-71
2023/01/13 13:22:05;;;;;;;12.20;4.40;;;;;;;9.37;82.20;99503.45;131173;1252;107551;-72
2023/01/13 13:25:27;;;;;;;7.90;4.20;;;;;;;9.36;82.52;99498.78;131294;1263;108668;-72
2023/01/13 13:28:37;;;;;;;11.20;5.50;;;;;;;9.38;82.63;99504.41;131180;1252;107652;-72
2023/01/13 13:32:02;;;;;;;9.40;6.10;;;;;;;9.43;82.51;99501.11;131054;1252;106552;-72
2023/01/13 13:35:22;;;;;;;11.00;6.20;;;;;;;9.43;82.71;99498.73;131375;1251;107610;-74
2023/01/13 13:48:59;;;;;;;11.00;6.00;;;;;;;9.37;82.43;99490.02;131291;1254;107530;-72
2023/01/13 13:52:09;;;;;;;30.20;14.30;;;;;;;9.36;82.63;99490.66;131331;1264;107260;-72
2023/01/13 13:55:20;;;;;;;15.50;7.60;;;;;;;9.38;82.64;99490.45;131380;1253;107454;-72
2023/01/13 13:58:27;;;;;;;15.10;7.20;;;;;;;9.43;82.27;99492.94;131109;1253;107397;-73
2023/01/13 14:01:37;;;;;;;18.00;11.20;;;;;;;9.46;82.49;99495.64;131132;1253;107451;-72
2023/01/13 14:04:42;;;;;;;13.60;6.60;;;;;;;9.48;82.14;99498.63;131305;1254;108588;-72
2023/01/13 14:07:50;;;;;;;11.50;6.50;;;;;;;9.49;82.14;99495.44;131544;1254;107388;-73
2023/01/13 14:10:56;;;;;;;11.50;5.90;;;;;;;9.48;82.00;99500.06;131154;1252;107624;-72
2023/01/13 14:14:07;;;;;;;8.90;5.60;;;;;;;9.44;81.83;99498.07;131145;1253;107616;-72
2023/01/13 14:17:22;;;;;;;10.00;5.40;;;;;;;9.39;82.04;99506.25;131298;1251;107619;-73
2023/01/13 14:20:28;;;;;;;9.90;4.80;;;;;;;9.35;81.77;99503.87;131372;1253;107499;-72
2023/01/13 14:23:35;;;;;;;12.70;7.30;;;;;;;9.34;81.79;99502.54;131269;1254;107443;-73
2023/01/13 14:26:40;;;;;;;9.90;6.10;;;;;;;9.36;81.88;99503.95;131256;1253;108527;-73
2023/01/13 14:29:46;;;;;;;8.90;5.10;;;;;;;9.38;81.66;99509.27;131254;1253;107516;-72
2023/01/13 14:32:53;;;;;;;15.30;11.00;;;;;;;9.37;81.64;99506.15;131202;1253;107442;-72
2023/01/13 14:36:17;;;;;;;22.30;12.20;;;;;;;9.37;81.66;99508.48;131123;1253;107407;-72
2023/01/13 14:39:35;;;;;;;24.70;12.50;;;;;;;9.33;81.88;99511.69;131375;1253;107402;-72
2023/01/13 14:42:40;;;;;;;28.90;13.20;;;;;;;9.30;81.72;99511.73;131319;1252;107077;-73
2023/01/13 14:45:59;;;;;;;9.10;5.10;;;;;;;9.26;81.71;99512.17;131008;1253;194546;-74
2023/01/13 14:49:05;;;;;;;9.50;5.20;;;;;;;9.22;81.67;99512.20;131401;1248;107421;-73
2023/01/13 14:52:16;;;;;;;181.00;70.50;;;;;;;9.21;81.68;99513.94;131417;1253;107796;-72
2023/01/13 14:55:30;;;;;;;23.50;10.40;;;;;;;9.23;81.92;99511.58;131278;1248;107542;-72
2023/01/13 14:58:35;;;;;;;57.10;25.60;;;;;;;9.26;81.73;99512.70;131492;1252;107521;-71
2023/01/13 15:01:41;;;;;;;21.30;9.70;;;;;;;9.27;81.83;99512.19;131501;1252;106369;-73
2023/01/13 15:04:47;;;;;;;26.90;11.80;;;;;;;9.27;81.61;99511.18;131375;1251;107701;-72
2023/01/13 15:07:54;;;;;;;18.50;9.70;;;;;;;9.24;81.45;99511.11;131442;1253;107613;-72
2023/01/13 15:11:01;;;;;;;13.60;6.50;;;;;;;9.21;81.55;99517.76;131521;1260;108556;-72
2023/01/13 15:14:11;;;;;;;30.50;11.80;;;;;;;9.16;81.50;99513.02;131484;1252;107382;-73
2023/01/13 15:17:17;;;;;;;32.70;15.10;;;;;;;9.13;81.56;99510.08;131434;1248;105686;-72
2023/01/13 15:20:24;;;;;;;25.40;12.10;;;;;;;9.12;81.63;99508.85;131442;1253;107224;-73
2023/01/13 15:23:30;;;;;;;15.00;7.20;;;;;;;9.14;81.41;99511.59;131493;1253;107496;-72
2023/01/13 15:26:36;;;;;;;13.20;6.80;;;;;;;9.17;81.46;99509.20;131408;1252;107521;-72
2023/01/13 15:29:41;;;;;;;15.60;9.50;;;;;;;9.17;81.31;99511.08;131134;1254;107223;-72
2023/01/13 15:32:48;;;;;;;12.40;7.30;;;;;;;9.17;81.29;99508.06;131282;1252;106544;-73
2023/01/13 15:35:54;;;;;;;14.60;9.80;;;;;;;9.15;81.37;99517.34;131259;1261;107405;-72